Time;durP1;ratioP1;P1;durP2;ratioP2;P2;SDS_P1;SDS_P2;PMS_P1;PMS_P2;Temp;Humidity;BMP_temperature;BMP_pressure;BME280_temperature;BME280_humidity;BME280_pressure;Samples;Min_cycle;Max_cycle;Signal;HPM_P1;HPM_P2
2023/08/17 00:01:27;;;;;;;4.97;2.15;;;14.80;99.90;;;;;;4985201;28;20465;-74
2023/08/17 00:03:53;;;;;;;4.00;2.35;;;14.70;99.90;;;;;;4985779;28;20034;-73
2023/08/17 00:06:18;;;;;;;4.75;2.03;;;14.80;99.90;;;;;;4975792;28;20052;-74
2023/08/17 00:08:44;;;;;;;5.68;2.38;;;14.90;99.90;;;;;;4969724;28;20390;-74
2023/08/17 00:11:10;;;;;;;3.13;1.80;;;14.90;99.90;;;;;;4973150;28;20046;-73
2023/08/17 00:13:35;;;;;;;3.47;1.75;;;15.00;99.90;;;;;;4984586;28;20102;-73
2023/08/17 00:16:04;;;;;;;4.55;1.77;;;15.00;99.90;;;;;;4980635;28;20045;-76
2023/08/17 00:18:30;;;;;;;3.15;1.75;;;15.10;99.90;;;;;;4972726;28;20034;-76
2023/08/17 00:20:56;;;;;;;5.20;1.90;;;15.10;99.90;;;;;;4988575;28;20540;-76
2023/08/17 00:23:21;;;;;;;5.57;1.67;;;15.10;99.90;;;;;;4983803;28;20043;-74
2023/08/17 00:25:48;;;;;;;4.10;1.85;;;15.10;99.90;;;;;;4983363;28;20047;-73
2023/08/17 00:28:14;;;;;;;5.20;1.58;;;15.20;99.90;;;;;;4979501;28;20042;-74
2023/08/17 00:30:39;;;;;;;3.42;1.70;;;15.10;99.90;;;;;;4980357;28;20062;-76
2023/08/17 00:33:05;;;;;;;3.10;1.80;;;15.10;99.90;;;;;;4984154;28;20614;-75
2023/08/17 00:35:32;;;;;;;4.25;1.60;;;15.10;99.90;;;;;;4981857;28;20050;-76
2023/08/17 00:37:58;;;;;;;2.28;1.48;;;15.10;99.90;;;;;;4987335;28;20042;-76
2023/08/17 00:40:24;;;;;;;6.57;1.75;;;15.10;99.90;;;;;;4984953;28;20069;-76
2023/08/17 00:42:49;;;;;;;4.13;1.65;;;15.00;99.90;;;;;;4984184;28;20046;-76
2023/08/17 00:45:15;;;;;;;2.60;1.48;;;15.00;99.90;;;;;;4986385;28;20049;-76
2023/08/17 00:47:42;;;;;;;4.65;2.00;;;15.00;99.90;;;;;;4972898;28;20088;-76
2023/08/17 00:50:08;;;;;;;5.03;2.28;;;15.10;99.90;;;;;;4988676;28;20038;-76
2023/08/17 00:52:34;;;;;;;5.53;1.50;;;15.00;99.90;;;;;;4988264;28;20038;-76
2023/08/17 00:55:02;;;;;;;4.28;1.92;;;15.10;99.90;;;;;;4988495;28;20125;-73
2023/08/17 00:57:28;;;;;;;4.30;1.70;;;15.00;99.90;;;;;;4981656;28;20066;-73
2023/08/17 00:59:54;;;;;;;4.20;1.80;;;15.00;99.90;;;;;;4981866;28;20121;-74
2023/08/17 01:02:20;;;;;;;4.45;1.90;;;15.00;99.90;;;;;;4994026;28;20458;-74
2023/08/17 01:04:46;;;;;;;2.85;1.55;;;15.00;99.90;;;;;;4981717;28;20125;-73
2023/08/17 01:07:11;;;;;;;3.35;1.80;;;15.00;99.90;;;;;;5001939;28;20085;-75
2023/08/17 01:09:38;;;;;;;2.38;1.60;;;15.00;99.90;;;;;;4981009;28;20085;-76
2023/08/17 01:12:32;;;;;;;3.05;1.30;;;15.00;99.90;;;;;;4986861;28;20504;-76
2023/08/17 01:15:06;;;;;;;2.78;1.42;;;15.00;99.90;;;;;;4991479;28;20057;-76
2023/08/17 01:17:43;;;;;;;3.15;2.17;;;14.90;99.90;;;;;;4984587;28;20064;-76
2023/08/17 01:20:12;;;;;;;3.08;1.50;;;14.90;99.90;;;;;;4984946;28;20127;-76
2023/08/17 01:22:41;;;;;;;2.97;1.60;;;14.80;99.90;;;;;;4984782;28;20042;-75
2023/08/17 01:25:07;;;;;;;5.68;1.67;;;14.80;99.90;;;;;;4984782;28;20034;-74
2023/08/17 01:27:42;;;;;;;3.42;1.60;;;14.80;99.90;;;;;;4989359;28;20046;-74
2023/08/17 01:30:10;;;;;;;3.33;1.70;;;14.70;1.00;;;;;;4969899;28;20062;-73
2023/08/17 01:32:56;;;;;;;2.10;1.60;;;14.60;1.00;;;;;;4986127;28;20049;-73
2023/08/17 01:35:30;;;;;;;5.28;1.63;;;14.60;1.00;;;;;;4985421;28;20129;-73
2023/08/17 01:38:03;;;;;;;4.32;2.53;;;14.60;1.00;;;;;;4995173;28;20049;-73
2023/08/17 01:40:32;;;;;;;5.18;1.88;;;14.50;1.00;;;;;;4990776;28;20045;-73
2023/08/17 01:42:58;;;;;;;2.30;1.42;;;14.40;1.00;;;;;;5001444;28;20445;-74
2023/08/17 01:45:25;;;;;;;2.22;1.50;;;14.40;1.00;;;;;;4987647;28;20567;-73
2023/08/17 01:47:51;;;;;;;4.70;1.50;;;14.30;1.00;;;;;;4976280;28;20125;-73
2023/08/17 01:50:16;;;;;;;3.05;2.00;;;14.30;1.00;;;;;;4985524;28;20145;-74
2023/08/17 01:52:42;;;;;;;3.30;1.50;;;14.30;1.00;;;;;;5003055;28;20038;-74
2023/08/17 01:55:08;;;;;;;4.53;1.80;;;14.20;1.00;;;;;;4987897;28;20046;-73
2023/08/17 01:57:35;;;;;;;3.88;2.00;;;14.20;1.00;;;;;;4990733;28;20038;-74
2023/08/17 02:00:01;;;;;;;7.10;1.77;;;14.10;1.00;;;;;;4986827;28;20038;-74
2023/08/17 02:02:27;;;;;;;2.45;1.58;;;14.10;1.00;;;;;;4995294;28;20034;-74
2023/08/17 02:04:52;;;;;;;3.33;1.70;;;14.10;1.00;;;;;;4995318;28;20042;-74
2023/08/17 02:07:18;;;;;;;3.70;1.63;;;14.00;1.00;;;;;;4981839;28;20437;-74
2023/08/17 02:09:43;;;;;;;4.10;2.03;;;14.00;1.00;;;;;;5000767;28;20544;-74
2023/08/17 02:12:09;;;;;;;4.82;2.20;;;14.00;1.00;;;;;;4983410;28;20092;-74
2023/08/17 02:14:35;;;;;;;3.88;2.05;;;14.00;1.00;;;;;;4990570;28;20046;-73
2023/08/17 02:17:00;;;;;;;3.97;2.03;;;14.00;1.00;;;;;;4983469;28;20061;-74
2023/08/17 02:19:26;;;;;;;2.67;1.90;;;14.10;1.00;;;;;;4987456;28;20046;-74
2023/08/17 02:21:51;;;;;;;5.82;2.20;;;14.10;1.00;;;;;;4994710;28;20049;-73
2023/08/17 02:24:17;;;;;;;4.15;1.95;;;14.10;1.00;;;;;;4975188;28;20533;-74
2023/08/17 02:26:42;;;;;;;4.95;2.28;;;14.20;1.00;;;;;;4987423;28;20038;-73
2023/08/17 02:29:08;;;;;;;5.50;1.92;;;14.20;1.00;;;;;;4971040;28;20034;-74
2023/08/17 02:31:34;;;;;;;3.47;1.70;;;14.30;1.00;;;;;;4994487;28;20050;-74
2023/08/17 02:34:04;;;;;;;4.15;1.73;;;14.30;1.00;;;;;;4998472;28;20038;-74
2023/08/17 02:36:31;;;;;;;3.75;1.85;;;14.40;1.00;;;;;;4968866;28;20445;-74
2023/08/17 02:38:57;;;;;;;4.28;2.13;;;14.40;1.00;;;;;;4986251;28;20689;-74
2023/08/17 02:41:22;;;;;;;5.53;1.80;;;14.40;1.00;;;;;;4993604;28;20038;-74
2023/08/17 02:43:48;;;;;;;8.60;2.55;;;14.40;1.00;;;;;;4982704;28;20390;-76
2023/08/17 02:46:14;;;;;;;5.35;2.17;;;14.50;1.00;;;;;;4984659;28;20046;-76
2023/08/17 02:48:39;;;;;;;3.17;1.85;;;14.50;1.00;;;;;;4984817;28;20524;-76
2023/08/17 02:51:05;;;;;;;5.70;2.03;;;14.50;1.00;;;;;;4998125;28;20057;-76
2023/08/17 02:53:30;;;;;;;3.42;1.85;;;14.50;1.00;;;;;;4985158;28;20695;-76
2023/08/17 02:55:56;;;;;;;5.72;2.47;;;14.60;1.00;;;;;;4976485;28;20054;-76
2023/08/17 02:58:22;;;;;;;4.63;2.15;;;14.60;1.00;;;;;;4995185;28;20038;-76
2023/08/17 03:00:47;;;;;;;4.75;2.10;;;14.60;1.00;;;;;;4995535;28;20097;-76
2023/08/17 03:03:13;;;;;;;4.93;1.88;;;14.60;1.00;;;;;;4999970;28;20038;-73
2023/08/17 03:05:39;;;;;;;5.55;2.00;;;14.60;1.00;;;;;;4998573;28;20061;-73
2023/08/17 03:08:05;;;;;;;5.57;1.98;;;14.50;1.00;;;;;;4984352;28;20038;-73
2023/08/17 03:10:31;;;;;;;3.67;1.80;;;14.50;1.00;;;;;;4997942;28;20042;-73
2023/08/17 03:12:57;;;;;;;4.40;2.40;;;14.50;1.00;;;;;;4976620;28;20046;-74
2023/08/17 03:15:23;;;;;;;3.70;2.00;;;14.40;1.00;;;;;;4999254;28;20046;-74
2023/08/17 03:17:48;;;;;;;4.38;1.92;;;14.40;1.00;;;;;;4988677;28;20046;-76
2023/08/17 03:20:14;;;;;;;9.82;3.42;;;14.40;1.00;;;;;;4977987;28;20041;-76
2023/08/17 03:22:39;;;;;;;3.35;2.03;;;14.30;1.00;;;;;;4970557;28;20412;-75
2023/08/17 03:25:06;;;;;;;3.20;2.28;;;14.30;1.00;;;;;;4993012;28;20124;-76
2023/08/17 03:27:31;;;;;;;3.47;2.30;;;14.30;1.00;;;;;;4970822;28;20045;-76
2023/08/17 03:29:57;;;;;;;4.65;2.72;;;14.20;1.00;;;;;;4988768;28;20062;-76
2023/08/17 03:32:22;;;;;;;7.00;2.53;;;14.20;1.00;;;;;;4985503;28;20543;-76
2023/08/17 03:34:48;;;;;;;5.50;2.47;;;14.20;1.00;;;;;;4990463;28;20051;-74
2023/08/17 03:37:14;;;;;;;6.32;2.45;;;14.20;1.00;;;;;;4979760;28;20760;-73
2023/08/17 03:39:39;;;;;;;5.03;3.00;;;14.20;1.00;;;;;;4998466;28;20038;-73
2023/08/17 03:42:05;;;;;;;5.60;2.75;;;14.10;1.00;;;;;;4998972;28;20039;-73
2023/08/17 03:44:30;;;;;;;6.10;2.50;;;14.10;1.00;;;;;;4991927;28;20205;-73
2023/08/17 03:46:56;;;;;;;5.72;2.88;;;14.10;1.00;;;;;;4984921;28;20396;-74
2023/08/17 03:49:22;;;;;;;4.97;2.70;;;14.10;1.00;;;;;;4983908;28;20458;-73
2023/08/17 03:51:48;;;;;;;6.78;2.72;;;14.10;1.00;;;;;;4964516;28;20133;-73
2023/08/17 03:54:13;;;;;;;7.07;2.90;;;14.10;1.00;;;;;;4986223;28;20042;-74
2023/08/17 03:56:39;;;;;;;5.70;2.75;;;14.20;1.00;;;;;;4984579;28;20042;-73
2023/08/17 03:59:04;;;;;;;9.70;2.30;;;14.30;1.00;;;;;;4986039;28;20068;-73
2023/08/17 04:01:30;;;;;;;6.32;2.72;;;14.40;1.00;;;;;;4999908;28;20039;-74
2023/08/17 04:03:56;;;;;;;7.18;2.40;;;14.50;1.00;;;;;;4992034;28;20046;-73
2023/08/17 04:06:22;;;;;;;5.25;2.58;;;14.50;1.00;;;;;;4984562;28;20520;-73
2023/08/17 04:08:48;;;;;;;4.28;2.50;;;14.60;1.00;;;;;;4989190;28;20038;-73
2023/08/17 04:11:13;;;;;;;4.07;2.80;;;14.60;1.00;;;;;;4980391;28;20145;-73
2023/08/17 04:13:39;;;;;;;5.80;2.25;;;14.70;1.00;;;;;;4971531;28;20042;-72
2023/08/17 04:16:04;;;;;;;5.82;2.20;;;14.70;1.00;;;;;;4987125;28;20042;-73
2023/08/17 04:18:30;;;;;;;6.55;2.25;;;14.70;1.00;;;;;;4987977;28;20044;-75
2023/08/17 04:20:56;;;;;;;3.97;2.30;;;14.80;1.00;;;;;;4988165;28;20062;-76
2023/08/17 04:23:21;;;;;;;3.75;2.33;;;14.90;1.00;;;;;;4987326;28;20101;-76
2023/08/17 04:25:48;;;;;;;6.30;2.25;;;14.90;1.00;;;;;;5002129;28;20038;-76
2023/08/17 04:28:13;;;;;;;6.07;2.38;;;15.00;1.00;;;;;;4973633;28;20042;-76
2023/08/17 04:30:39;;;;;;;3.60;2.28;;;14.90;1.00;;;;;;4987055;28;20133;-76
2023/08/17 04:33:05;;;;;;;5.38;2.22;;;15.00;1.00;;;;;;4987675;28;20172;-76
2023/08/17 04:35:30;;;;;;;3.67;2.05;;;15.00;1.00;;;;;;4984328;28;20413;-76
2023/08/17 04:37:56;;;;;;;5.70;2.30;;;15.10;1.00;;;;;;4995671;28;20038;-76
2023/08/17 04:40:22;;;;;;;5.15;2.00;;;15.00;1.00;;;;;;4986501;28;20400;-76
2023/08/17 04:42:48;;;;;;;4.53;2.60;;;15.00;1.00;;;;;;4998731;28;20046;-75
2023/08/17 04:45:13;;;;;;;2.45;1.95;;;15.00;1.00;;;;;;4979469;28;20109;-76
2023/08/17 04:47:39;;;;;;;4.50;2.15;;;15.00;1.00;;;;;;4993771;28;20045;-75
2023/08/17 04:50:06;;;;;;;3.45;2.15;;;14.90;1.00;;;;;;4994049;28;20409;-76
2023/08/17 04:52:31;;;;;;;3.28;1.92;;;14.90;1.00;;;;;;4988113;28;20133;-75
2023/08/17 04:54:57;;;;;;;3.63;2.00;;;15.00;1.00;;;;;;4985480;28;20704;-76
2023/08/17 04:57:23;;;;;;;5.63;1.60;;;15.00;1.00;;;;;;4988054;28;20065;-75
2023/08/17 04:59:48;;;;;;;4.28;1.85;;;15.00;1.00;;;;;;4983866;28;20043;-74
2023/08/17 05:02:14;;;;;;;4.30;2.00;;;15.00;1.00;;;;;;4985384;28;20053;-75
2023/08/17 05:04:39;;;;;;;4.90;1.83;;;15.10;1.00;;;;;;4977344;28;20034;-75
2023/08/17 05:07:05;;;;;;;4.47;1.73;;;15.10;1.00;;;;;;4974108;28;20351;-75
2023/08/17 05:09:39;;;;;;;6.30;1.85;;;15.20;1.00;;;;;;4979679;28;20050;-75
2023/08/17 05:12:04;;;;;;;4.25;1.90;;;15.20;1.00;;;;;;4987203;28;20411;-73
2023/08/17 05:14:30;;;;;;;6.57;1.95;;;15.20;1.00;;;;;;4986780;28;20120;-73
2023/08/17 05:16:56;;;;;;;7.70;2.15;;;15.30;1.00;;;;;;4983447;28;20070;-72
2023/08/17 05:19:21;;;;;;;7.25;2.13;;;15.30;1.00;;;;;;4972048;28;20034;-73
2023/08/17 05:21:50;;;;;;;4.57;1.80;;;15.30;1.00;;;;;;4971685;28;20042;-73
2023/08/17 05:24:15;;;;;;;4.80;2.35;;;15.40;1.00;;;;;;4985656;28;20045;-73
2023/08/17 05:26:41;;;;;;;3.67;1.80;;;15.40;1.00;;;;;;4995384;28;20046;-73
2023/08/17 05:29:07;;;;;;;4.72;1.80;;;15.50;1.00;;;;;;4995279;28;20057;-73
2023/08/17 05:31:32;;;;;;;3.78;2.10;;;15.50;1.00;;;;;;4993657;28;20039;-73
2023/08/17 05:33:58;;;;;;;6.03;1.80;;;15.60;1.00;;;;;;4977931;28;20554;-73
2023/08/17 05:36:23;;;;;;;5.22;2.10;;;15.60;1.00;;;;;;4962604;28;20043;-74
2023/08/17 05:38:49;;;;;;;4.65;1.60;;;15.70;1.00;;;;;;4965183;28;20042;-73
2023/08/17 05:41:16;;;;;;;4.90;1.60;;;15.80;1.00;;;;;;4972243;28;20538;-72
2023/08/17 05:43:42;;;;;;;3.58;1.73;;;15.80;1.00;;;;;;4980904;28;20046;-74
2023/08/17 05:46:07;;;;;;;6.88;1.48;;;15.80;1.00;;;;;;4966799;28;20081;-73
2023/08/17 05:48:33;;;;;;;3.35;1.42;;;15.80;1.00;;;;;;5000628;28;20069;-74
2023/08/17 05:50:59;;;;;;;5.10;2.10;;;15.90;1.00;;;;;;4979933;28;20100;-73
2023/08/17 05:53:24;;;;;;;3.63;1.30;;;15.90;1.00;;;;;;4984026;28;20051;-72
2023/08/17 05:55:50;;;;;;;3.03;1.60;;;16.00;1.00;;;;;;4984259;28;20704;-73
2023/08/17 05:58:15;;;;;;;3.30;1.45;;;15.90;1.00;;;;;;4984424;28;20041;-72
2023/08/17 06:00:41;;;;;;;3.88;1.90;;;16.10;1.00;;;;;;4985571;28;20109;-75
2023/08/17 06:03:07;;;;;;;3.88;1.45;;;16.10;1.00;;;;;;4985559;28;20038;-73
2023/08/17 06:05:33;;;;;;;2.78;1.48;;;16.10;1.00;;;;;;4981932;28;20042;-73
2023/08/17 06:07:59;;;;;;;2.75;1.42;;;16.20;1.00;;;;;;4970268;28;20181;-72
2023/08/17 06:10:25;;;;;;;6.55;1.65;;;16.20;1.00;;;;;;4980947;28;20113;-71
2023/08/17 06:12:55;;;;;;;5.63;1.40;;;16.30;1.00;;;;;;5000351;28;20050;-72
2023/08/17 06:15:21;;;;;;;3.22;1.33;;;16.30;1.00;;;;;;4988745;28;20518;-71
2023/08/17 06:17:49;;;;;;;5.82;1.45;;;16.40;1.00;;;;;;4997446;28;20046;-72
2023/08/17 06:20:16;;;;;;;5.47;1.60;;;16.40;1.00;;;;;;4994327;28;20046;-72
2023/08/17 06:22:41;;;;;;;3.67;1.48;;;16.50;1.00;;;;;;4972374;28;20540;-72
2023/08/17 06:25:08;;;;;;;3.67;1.65;;;16.60;1.00;;;;;;4993243;28;20030;-71
2023/08/17 06:27:37;;;;;;;8.07;1.42;;;16.60;1.00;;;;;;4972807;28;20042;-71
2023/08/17 06:30:03;;;;;;;4.15;1.13;;;16.60;1.00;;;;;;4968711;28;20673;-72
2023/08/17 06:32:32;;;;;;;7.40;1.40;;;16.60;1.00;;;;;;4986124;28;20790;-72
2023/08/17 06:34:58;;;;;;;3.75;1.50;;;16.60;1.00;;;;;;4996555;28;20042;-72
2023/08/17 06:37:23;;;;;;;2.88;1.45;;;16.60;1.00;;;;;;4974655;28;20689;-72
2023/08/17 06:39:49;;;;;;;4.38;1.45;;;16.70;1.00;;;;;;4985462;28;20117;-72
2023/08/17 06:42:15;;;;;;;3.50;1.30;;;16.70;1.00;;;;;;4985435;28;20039;-72
2023/08/17 06:44:40;;;;;;;4.75;1.73;;;16.90;99.90;;;;;;5002308;28;20722;-72
2023/08/17 06:47:06;;;;;;;5.05;1.40;;;16.90;99.90;;;;;;5000877;28;20042;-72
2023/08/17 06:49:32;;;;;;;2.97;1.27;;;17.00;99.90;;;;;;4976852;28;20043;-72
2023/08/17 06:51:57;;;;;;;4.93;1.33;;;17.10;99.90;;;;;;4997509;28;20088;-72
2023/08/17 06:54:23;;;;;;;4.10;1.30;;;17.10;99.90;;;;;;4984344;28;20053;-72
2023/08/17 06:56:49;;;;;;;2.35;1.00;;;17.20;99.90;;;;;;4988131;28;20173;-72
2023/08/17 06:59:14;;;;;;;4.50;1.27;;;17.30;99.90;;;;;;4982232;28;20125;-72
2023/08/17 07:01:40;;;;;;;2.70;1.17;;;17.40;99.90;;;;;;4986027;28;20045;-72
2023/08/17 07:04:05;;;;;;;2.80;1.10;;;17.40;99.90;;;;;;4967633;28;20068;-72
2023/08/17 07:06:31;;;;;;;3.65;1.23;;;17.50;99.90;;;;;;4981532;28;20049;-71
2023/08/17 07:08:57;;;;;;;5.82;1.48;;;17.60;99.90;;;;;;4977893;28;20056;-71
2023/08/17 07:11:22;;;;;;;3.58;1.23;;;17.60;99.90;;;;;;4979251;28;20030;-71
2023/08/17 07:13:48;;;;;;;2.10;0.90;;;17.60;99.90;;;;;;4979350;28;20066;-72
2023/08/17 07:16:14;;;;;;;1.83;0.90;;;17.60;99.90;;;;;;4977800;28;20038;-71
2023/08/17 07:18:40;;;;;;;2.45;1.30;;;17.60;99.90;;;;;;4980957;28;20041;-72
2023/08/17 07:21:05;;;;;;;1.92;1.10;;;17.60;99.90;;;;;;4984615;28;20046;-72
2023/08/17 07:23:31;;;;;;;3.65;1.98;;;17.60;99.90;;;;;;4983806;28;20432;-72
2023/08/17 07:25:57;;;;;;;4.78;1.20;;;17.80;99.90;;;;;;4983692;28;20065;-71
2023/08/17 07:28:23;;;;;;;2.88;1.10;;;18.00;99.90;;;;;;4983709;28;20077;-71
2023/08/17 07:30:48;;;;;;;4.50;1.40;;;18.10;36.20;;;;;;4983429;28;20515;-71
2023/08/17 07:33:14;;;;;;;4.15;1.63;;;18.30;1.00;;;;;;4987529;28;20060;-72
2023/08/17 07:35:40;;;;;;;3.03;0.88;;;18.50;1.00;;;;;;4966731;28;20045;-72
2023/08/17 07:38:05;;;;;;;3.90;1.13;;;18.50;1.00;;;;;;4967650;28;20449;-72
2023/08/17 07:40:31;;;;;;;2.55;1.02;;;18.70;1.00;;;;;;4980391;28;20069;-72
2023/08/17 07:42:57;;;;;;;4.03;0.70;;;18.80;1.00;;;;;;4984076;28;20031;-72
2023/08/17 07:45:22;;;;;;;2.88;1.35;;;18.80;1.00;;;;;;4983742;28;20042;-73
2023/08/17 07:47:48;;;;;;;1.80;0.80;;;18.90;99.90;;;;;;4973875;28;20038;-72
2023/08/17 07:50:13;;;;;;;5.65;1.25;;;18.80;99.90;;;;;;4981572;28;20260;-71
2023/08/17 07:52:39;;;;;;;2.50;1.13;;;18.80;99.90;;;;;;4979353;28;20042;-72
2023/08/17 07:55:05;;;;;;;2.88;0.85;;;18.80;99.90;;;;;;4982449;28;20038;-72
2023/08/17 07:57:31;;;;;;;2.55;1.15;;;18.80;99.90;;;;;;4979093;28;20151;-71
2023/08/17 07:59:56;;;;;;;2.40;0.80;;;18.70;99.90;;;;;;4978531;28;20044;-72
2023/08/17 08:02:22;;;;;;;3.70;1.05;;;18.80;99.90;;;;;;4996138;28;20043;-72
2023/08/17 08:04:47;;;;;;;3.47;1.17;;;18.80;99.90;;;;;;4978727;28;20046;-72
2023/08/17 08:07:13;;;;;;;3.90;1.00;;;18.80;99.90;;;;;;4983359;28;20485;-72
2023/08/17 08:09:38;;;;;;;3.20;0.82;;;19.00;99.90;;;;;;4969303;28;20038;-72
2023/08/17 08:12:05;;;;;;;3.20;1.33;;;19.10;99.90;;;;;;4984753;28;20504;-73
2023/08/17 08:14:31;;;;;;;1.83;0.60;;;19.30;99.90;;;;;;4980678;28;20129;-72
2023/08/17 08:16:56;;;;;;;1.40;0.70;;;19.40;99.90;;;;;;4983121;28;20724;-73
2023/08/17 08:19:24;;;;;;;1.83;0.85;;;19.60;99.90;;;;;;4980831;28;20042;-73
2023/08/17 08:21:50;;;;;;;5.32;1.10;;;19.70;99.90;;;;;;4963501;28;20540;-73
2023/08/17 08:24:16;;;;;;;2.90;1.52;;;19.80;99.90;;;;;;4979555;28;20050;-73
2023/08/17 08:26:41;;;;;;;1.95;0.98;;;20.10;99.90;;;;;;4967033;28;20042;-73
2023/08/17 08:29:07;;;;;;;6.00;1.10;;;20.30;99.90;;;;;;5001216;28;20145;-72
2023/08/17 08:31:32;;;;;;;3.33;0.80;;;20.40;99.90;;;;;;5000510;28;20053;-73
2023/08/17 08:33:59;;;;;;;1.83;0.85;;;20.20;99.90;;;;;;4984440;28;20117;-73
2023/08/17 08:36:25;;;;;;;3.15;0.70;;;19.90;99.90;;;;;;4997926;28;20034;-73
2023/08/17 08:38:51;;;;;;;3.20;1.00;;;19.60;99.90;;;;;;4984458;28;20030;-73
2023/08/17 08:41:17;;;;;;;2.85;1.02;;;19.30;99.90;;;;;;4957716;28;20043;-72
2023/08/17 08:43:43;;;;;;;2.90;0.90;;;19.10;99.90;;;;;;4966474;28;20366;-73
2023/08/17 08:46:09;;;;;;;1.17;0.80;;;19.10;99.90;;;;;;4963541;28;20054;-73
2023/08/17 08:48:38;;;;;;;3.70;0.80;;;19.20;99.90;;;;;;4977879;28;20042;-72
2023/08/17 08:51:07;;;;;;;4.82;1.10;;;19.40;99.90;;;;;;4979335;28;20038;-72
2023/08/17 08:53:44;;;;;;;4.55;1.58;;;19.50;99.90;;;;;;4982302;28;20153;-73
2023/08/17 08:56:19;;;;;;;2.40;0.95;;;19.50;99.90;;;;;;4967732;28;20126;-72
2023/08/17 08:58:45;;;;;;;1.15;0.80;;;19.50;99.90;;;;;;4995477;28;20049;-73
2023/08/17 09:01:12;;;;;;;2.00;1.00;;;19.50;99.90;;;;;;4969875;28;20042;-73
2023/08/17 09:03:38;;;;;;;1.35;0.93;;;19.40;99.90;;;;;;4977291;28;20141;-73
2023/08/17 09:06:04;;;;;;;4.93;0.90;;;19.40;99.90;;;;;;4967409;28;20676;-73
2023/08/17 09:08:30;;;;;;;0.93;0.80;;;19.40;99.90;;;;;;4984779;28;20121;-72
2023/08/17 09:10:57;;;;;;;4.30;1.00;;;19.40;99.90;;;;;;4981526;28;20590;-73
2023/08/17 09:13:23;;;;;;;3.10;1.10;;;19.70;99.90;;;;;;4984548;28;20560;-73
2023/08/17 09:15:48;;;;;;;2.22;1.05;;;20.10;99.90;;;;;;5002342;28;20053;-73
2023/08/17 09:18:16;;;;;;;2.65;0.88;;;20.30;99.90;;;;;;4969377;28;20053;-73
2023/08/17 09:20:42;;;;;;;5.88;0.80;;;20.30;95.40;;;;;;4986625;28;20053;-72
2023/08/17 09:23:16;;;;;;;4.95;1.05;;;20.10;99.90;;;;;;4967951;28;20037;-73
2023/08/17 09:25:43;;;;;;;2.50;0.90;;;20.00;93.70;;;;;;4969673;28;20108;-73
2023/08/17 09:28:12;;;;;;;2.00;0.90;;;20.00;99.90;;;;;;4980839;28;20311;-74
2023/08/17 09:30:58;;;;;;;2.90;0.88;;;20.10;99.90;;;;;;4969926;28;20110;-74
2023/08/17 09:33:26;;;;;;;1.63;0.80;;;20.30;99.90;;;;;;4956260;28;20042;-74
2023/08/17 09:35:54;;;;;;;2.45;0.70;;;20.40;99.90;;;;;;4987473;28;20073;-75
2023/08/17 09:38:20;;;;;;;3.50;0.80;;;20.60;92.70;;;;;;4972476;28;20082;-75
2023/08/17 09:40:46;;;;;;;2.00;0.80;;;20.90;85.00;;;;;;5002920;28;20078;-75
2023/08/17 09:43:14;;;;;;;3.28;1.02;;;21.30;67.10;;;;;;4984154;28;20045;-75
2023/08/17 09:45:40;;;;;;;3.42;0.98;;;21.50;36.80;;;;;;4986799;28;20061;-75
2023/08/17 09:48:09;;;;;;;5.88;1.20;;;21.40;16.10;;;;;;4970088;28;20671;-74
2023/08/17 09:50:35;;;;;;;3.42;1.92;;;21.20;28.00;;;;;;4986801;28;20595;-75
2023/08/17 09:53:04;;;;;;;3.13;0.80;;;21.00;42.50;;;;;;4986222;28;20153;-74
2023/08/17 09:55:33;;;;;;;1.50;0.70;;;20.80;42.30;;;;;;4986593;28;20054;-75
2023/08/17 09:57:59;;;;;;;1.73;0.70;;;20.70;55.20;;;;;;4986305;28;20034;-75
2023/08/17 10:00:26;;;;;;;5.35;0.85;;;20.70;60.70;;;;;;4987119;28;20175;-75
2023/08/17 10:02:53;;;;;;;3.40;1.00;;;20.80;61.70;;;;;;4986235;28;20038;-75
2023/08/17 10:05:20;;;;;;;3.15;1.25;;;21.20;30.40;;;;;;4980187;28;20666;-74
2023/08/17 10:07:51;;;;;;;2.72;0.90;;;21.50;19.90;;;;;;4981127;28;20077;-74
2023/08/17 10:10:21;;;;;;;2.88;0.80;;;22.00;1.00;;;;;;4982890;28;20046;-75
2023/08/17 10:13:21;;;;;;;3.45;0.80;;;22.50;1.00;;;;;;5001801;28;20038;-75
2023/08/17 10:16:10;;;;;;;2.40;1.15;;;22.80;1.00;;;;;;4966238;28;20090;-74
2023/08/17 10:18:51;;;;;;;2.38;1.00;;;22.70;1.00;;;;;;4970389;28;20068;-74
2023/08/17 10:21:27;;;;;;;7.85;1.15;;;22.70;1.00;;;;;;4984326;28;20042;-75
2023/08/17 10:23:54;;;;;;;3.58;0.93;;;23.10;1.00;;;;;;4986386;28;20044;-74
2023/08/17 10:26:21;;;;;;;2.13;0.80;;;23.60;1.00;;;;;;4971129;28;20092;-74
2023/08/17 10:28:48;;;;;;;1.40;0.75;;;23.60;1.00;;;;;;4984497;28;20062;-74
2023/08/17 10:31:14;;;;;;;5.63;0.77;;;23.70;1.00;;;;;;4990647;28;20042;-75
2023/08/17 10:33:43;;;;;;;2.58;1.13;;;23.60;1.00;;;;;;5002618;28;20085;-74
2023/08/17 10:36:09;;;;;;;3.53;0.77;;;23.20;1.00;;;;;;5002987;28;20041;-74
2023/08/17 10:38:35;;;;;;;2.58;0.90;;;23.00;1.00;;;;;;4996835;28;20080;-73
2023/08/17 10:41:12;;;;;;;3.92;1.00;;;22.90;1.00;;;;;;4978164;28;20130;-73
2023/08/17 10:43:59;;;;;;;2.65;1.00;;;22.70;1.00;;;;;;4984052;28;20038;-75
2023/08/17 10:46:36;;;;;;;4.13;1.08;;;22.60;1.00;;;;;;4980551;28;20601;-74
2023/08/17 10:49:06;;;;;;;1.95;1.02;;;22.60;1.00;;;;;;4966085;28;20041;-74
2023/08/17 10:51:32;;;;;;;2.72;0.95;;;22.60;1.00;;;;;;4980152;28;20042;-74
2023/08/17 10:54:00;;;;;;;3.35;0.80;;;22.80;1.00;;;;;;4978334;28;20046;-74
2023/08/17 10:56:30;;;;;;;3.95;1.05;;;23.00;1.00;;;;;;4978038;28;20057;-74
2023/08/17 10:59:24;;;;;;;1.05;0.77;;;23.20;1.00;;;;;;4962962;28;20046;-74
2023/08/17 11:01:51;;;;;;;5.60;1.65;;;23.10;1.00;;;;;;4995712;28;20038;-75
2023/08/17 11:04:17;;;;;;;2.50;1.25;;;22.80;1.00;;;;;;4989444;28;20441;-75
2023/08/17 11:06:44;;;;;;;2.78;1.00;;;22.60;1.00;;;;;;4985240;28;20042;-74
2023/08/17 11:09:10;;;;;;;3.15;0.98;;;22.60;1.00;;;;;;4974125;28;20468;-75
2023/08/17 11:11:35;;;;;;;2.10;1.20;;;22.50;1.00;;;;;;4984860;28;20056;-75
2023/08/17 11:14:02;;;;;;;3.10;1.40;;;22.30;1.00;;;;;;4986267;28;20392;-75
2023/08/17 11:16:27;;;;;;;2.80;1.20;;;22.40;1.00;;;;;;4984750;28;20121;-75
2023/08/17 11:18:55;;;;;;;2.55;1.27;;;22.30;1.00;;;;;;4983744;28;20122;-75
2023/08/17 11:21:21;;;;;;;1.85;1.10;;;22.10;1.00;;;;;;4968803;28;20066;-74
2023/08/17 11:23:47;;;;;;;3.67;1.38;;;22.00;1.00;;;;;;5001266;28;20253;-75
2023/08/17 11:26:18;;;;;;;1.67;1.00;;;22.30;1.00;;;;;;5001820;28;20050;-75
2023/08/17 11:28:44;;;;;;;3.45;1.13;;;22.50;1.00;;;;;;4969563;28;20050;-75
2023/08/17 11:31:11;;;;;;;2.17;1.38;;;22.60;1.00;;;;;;4969517;28;20038;-75
2023/08/17 11:33:38;;;;;;;4.10;1.27;;;22.50;1.00;;;;;;4985387;28;20038;-75
2023/08/17 11:36:06;;;;;;;2.97;1.40;;;22.30;1.00;;;;;;4995735;28;20040;-75
2023/08/17 11:38:38;;;;;;;2.08;1.40;;;22.20;1.00;;;;;;4980311;28;20130;-76
2023/08/17 11:41:05;;;;;;;3.00;1.23;;;22.20;1.00;;;;;;4977182;28;20036;-76
2023/08/17 11:43:32;;;;;;;2.15;1.20;;;22.30;1.00;;;;;;4983978;28;20034;-75
2023/08/17 11:46:00;;;;;;;3.25;1.10;;;22.70;1.00;;;;;;4982129;28;20137;-74
2023/08/17 11:48:26;;;;;;;3.13;1.40;;;23.10;1.00;;;;;;4997654;28;20105;-75
2023/08/17 11:50:53;;;;;;;2.70;1.13;;;23.20;1.00;;;;;;4982555;28;20497;-75
2023/08/17 11:53:18;;;;;;;2.80;1.50;;;23.40;1.00;;;;;;4983079;28;20052;-75
2023/08/17 11:55:44;;;;;;;3.17;1.80;;;23.50;1.00;;;;;;4979880;28;20054;-75
2023/08/17 11:58:10;;;;;;;3.25;2.13;;;23.60;1.00;;;;;;4982720;28;20058;-75
2023/08/17 12:00:41;;;;;;;3.75;1.50;;;23.50;1.00;;;;;;4980347;28;20034;-75
2023/08/17 12:03:06;;;;;;;3.38;1.42;;;23.30;1.00;;;;;;4999279;28;20405;-75
2023/08/17 12:05:33;;;;;;;4.95;1.70;;;23.20;1.00;;;;;;5001002;28;20049;-74
2023/08/17 12:08:02;;;;;;;1.70;1.50;;;23.30;1.00;;;;;;4984662;28;20037;-76
2023/08/17 12:10:30;;;;;;;4.93;1.90;;;23.30;1.00;;;;;;4978595;28;20125;-75
2023/08/17 12:13:01;;;;;;;3.25;1.73;;;23.20;1.00;;;;;;4997718;28;20035;-75
2023/08/17 12:15:34;;;;;;;3.75;2.00;;;23.20;1.00;;;;;;4972458;28;20035;-75
2023/08/17 12:18:02;;;;;;;2.75;1.63;;;23.20;1.00;;;;;;4954621;28;20397;-74
2023/08/17 12:20:28;;;;;;;4.18;1.48;;;23.40;1.00;;;;;;4978588;28;20039;-75
2023/08/17 12:22:53;;;;;;;3.78;1.73;;;23.70;1.00;;;;;;4980804;28;20039;-75
2023/08/17 12:25:23;;;;;;;2.85;1.42;;;24.00;1.00;;;;;;4984099;28;20117;-75
2023/08/17 12:27:49;;;;;;;2.97;2.05;;;24.20;1.00;;;;;;5001198;28;20042;-75
2023/08/17 12:30:29;;;;;;;2.33;1.45;;;24.30;1.00;;;;;;4985545;28;20124;-75
2023/08/17 12:32:55;;;;;;;2.28;1.50;;;24.30;1.00;;;;;;5001641;28;20579;-75
2023/08/17 12:35:23;;;;;;;3.25;1.30;;;24.10;1.00;;;;;;4985078;28;20042;-75
2023/08/17 12:37:49;;;;;;;2.47;1.67;;;23.70;1.00;;;;;;4986640;28;20035;-76
2023/08/17 12:40:14;;;;;;;1.98;1.25;;;23.50;1.00;;;;;;4983429;28;20046;-75
2023/08/17 12:42:40;;;;;;;2.83;1.83;;;23.30;1.00;;;;;;4988626;28;20041;-75
2023/08/17 12:45:06;;;;;;;4.63;1.33;;;23.10;1.00;;;;;;4988546;28;20042;-75
2023/08/17 12:47:32;;;;;;;3.22;1.60;;;22.80;1.00;;;;;;4988333;28;20456;-75
2023/08/17 12:49:57;;;;;;;3.15;1.58;;;22.70;1.00;;;;;;4987459;28;20046;-75
2023/08/17 12:52:23;;;;;;;3.00;1.45;;;22.60;1.00;;;;;;4984449;28;20049;-75